| Station | Date | Time | Temp (°F) | RH (%) | Dew Pt (°F) | Wind Spd (mph) | Wind Dir (°) | Wind Gust (mph) | Latest Rain (In) | Daily Rain (In) | Daily Max Temp (°F) | Daily Min Temp (°F) |
|---|---|---|---|---|---|---|---|---|---|---|---|---|
| Bavarian Lion EFW | 5/7/26 | 1230 | 69.3 3.2 | - | - | - | - | - | 0.00 | 0.00 | 70.4 3.1 | 50.0 4.2 |
| Rockpile Lower (Cooley) | 5/7/26 | 1215 | 72.3 1.8 | 59 7 | 57.1 5.3 | 2.9 0.3 | SE | 139 | 7.0 1.7 | 0.00 | 0.00 | 73.3 1.6 | 48.1 4.3 |
| Rockpile Upper (Cooley) | 5/7/26 | 1230 | 70.1 2.9 | 64 7 | 57.5 5.8 | 7.1 3.0 | SSE | 162 | 11.8 1.3 | 0.00 | 0.00 | 70.7 2.1 | 44.8 3.8 |
| Lower Dry Creek Valley | 5/7/26 | 1230 | 66.3 7.6 | 66 16 | 54.4 0.7 | 4.8 2.0 | SE | 138 | 9.2 1.8 | 0.00 | 0.00 | 67.1 7.2 | 51.8 3.2 |
| Geyserville-South (Nervo Station) | 5/7/26 | 1230 | 66.9 5.4 | - | - | 3.4 1.0 | SSE | 149 | 8.1 2.0 | 0.00 | 0.00 | 67.6 5.2 | 51.4 2.7 |
| Franz Valley (Stornetta) | 5/7/26 | 1230 | 69.0 2.2 | 67 12 | 57.4 3.6 | 2.9 0.1 | N | 6 | 7.9 1.3 | 0.00 | 0.00 | 69.8 1.8 | 48.5 4.8 |
| Geyserville (Ranch 3) | 5/7/26 | 1230 | 67.8 5.4 | 65 13 | 55.4 1.3 | 4.8 0.4 | ESE | 102 | 8.6 0.8 | 0.00 | 0.00 | 68.5 5.0 | 52.8 2.6 |
| Geyserville-North (Hoffman) | 5/7/26 | 1230 | 68.7 6.4 | 68 13 | 57.8 0.1 | 4.9 0.6 | SE | 125 | 8.7 2.2 | 0.00 | 0.00 | 69.0 8.8 | 52.9 2.8 |
| Knights Valley (Bavarian Lion) | 5/7/26 | 1230 | 67.9 3.2 | 67 11 | 56.7 2.1 | 2.2 0.3 | WNW | 294 | 5.7 0.0 | 0.00 | 0.00 | 69.1 2.6 | 49.1 4.3 |
| HWY 128/Chalk Hill Rd (Landslide) | 5/7/26 | 1200 | 63.9 7.3 | 73 16 | 55.2 0.1 | 2.7 0.1 | SSW | 202 | 6.9 1.1 | 0.00 | 0.00 | 65.3 6.4 | 51.8 3.3 |
| Newman Knights Valley | 5/7/26 | 1230 | 65.5 4.8 | 76 7 | 57.8 1.8 | 4.8 1.4 | SW | 229 | 7.5 0.2 | 0.00 | 0.00 | 66.2 5.3 | 51.8 2.7 |
| Jimtown-North (Piccolo Ranch 15) | 5/7/26 | 1230 | 67.3 4.2 | 66 10 | 55.8 0.6 | 1.8 0.9 | SW | 214 | 6.4 1.1 | 0.00 | 0.00 | 68.2 4.3 | 52.1 2.6 |
| Peterson (Ranch 09) | 5/7/26 | 1230 | 66.2 4.2 | 66 10 | 54.3 0.6 | 4.2 1.2 | SSW | 192 | 7.7 0.5 | 0.00 | 0.00 | 66.9 4.3 | 51.5 2.6 |
| Cloverdale-SE (Ranch 38) | 5/7/26 | 1230 | 67.6 3.2 | 71 11 | 57.8 1.8 | 8.9 4.0 | S | 181 | 13.3 2.5 | 0.00 | 0.00 | 68.8 3.3 | 50.9 2.8 |
| Geyserville-East (Ranch 40) | 5/7/26 | 1230 | 64.9 5.6 | 77 15 | 57.6 0.8 | 8.3 1.5 | SSW | 197 | 14.4 3.4 | 0.00 | 0.00 | 66.7 5.3 | 50.4 1.8 |
| N Chalk Hill Rd (Ranch 63) | 5/7/26 | 1230 | 65.5 6.9 | 68 14 | 54.8 0.1 | 3.9 0.5 | SSE | 168 | 7.7 0.2 | 0.00 | 0.00 | 66.5 6.8 | 49.6 4.0 |
| Cloverdale-East (Ranch 83) | 5/7/26 | 1230 | 70.5 3.5 | - | - | 4.7 1.6 | S | 191 | 8.8 1.6 | 0.00 | 0.00 | 71.6 3.1 | 52.4 2.9 |
| Crazy Creek Ranch | 5/7/26 | 1230 | 66.8 3.8 | 75 10 | 58.6 0.5 | 2.8 0.2 | SSE | 152 | 7.2 1.5 | 0.00 | 0.00 | 66.8 4.2 | 52.4 2.8 |
| Lytton East (Hill 5) | 5/7/26 | 1230 | 65.3 6.5 | 70 13 | 55.3 0.4 | 5.1 2.0 | SSE | 162 | 9.5 0.8 | 0.00 | 0.00 | 66.1 6.5 | 51.0 2.8 |
| Lytton East (Shop Hill Bottom) | 5/7/26 | 1230 | 65.2 7.8 | 68 15 | 54.5 0.7 | 4.7 1.9 | SE | 136 | 8.2 0.8 | 0.00 | 0.00 | 65.7 8.1 | 51.2 2.9 |
| Lytton West Hill (23PS) | 5/7/26 | 1230 | 64.8 7.5 | 69 18 | 54.4 1.1 | 5.5 1.1 | SSE | 151 | 10.3 0.3 | 0.00 | 0.00 | 65.4 7.6 | 51.4 3.2 |
| Lytton West Lower (Lew 6) | 5/7/26 | 1230 | 66.0 5.9 | 67 10 | 54.7 1.0 | 4.4 1.1 | SE | 144 | 9.0 0.7 | 0.00 | 0.00 | 66.3 6.5 | 51.3 2.9 |
| Whitton Ranch (201e) | 5/7/26 | 1230 | 68.4 4.7 | 64 10 | 55.9 0.0 | 3.2 0.2 | S | 170 | 7.1 2.0 | 0.00 | 0.00 | 69.2 4.5 | 51.9 2.7 |
| Upper Dry Creek Valley | 5/7/26 | 1230 | 69.2 5.5 | 62 14 | 55.6 2.0 | 4.8 1.5 | SE | 135 | 9.8 0.8 | 0.00 | 0.00 | 69.4 5.7 | 51.9 3.2 |
| Big River | 5/7/26 | 1230 | 64.3 7.2 | 76 14 | 56.7 1.2 | 3.7 0.6 | SSE | 148 | 8.8 0.4 | 0.00 | 0.00 | 65.0 6.9 | 51.4 3.0 |
| Max | 72.3 | 77 | 58.6 | 8.9 | - | 14.4 | 0.00 | 0.00 | 73.3 | 52.9 | ||
| Avg | 67.2 | 68 | 56.1 | 4.4 | - | 8.7 | 0.00 | - | - | - | ||
| Min | 63.9 | 59 | 54.3 | 1.8 | - | 5.7 | 0.00 | 0.00 | 65.0 | 44.8 |
| Station | Date | Time | Temp (°F) | RH (%) | Dew Pt (°F) | Wind Spd (mph) | Wind Dir (°) | Wind Gust (mph) | Latest Rain (In) | Daily Rain (In) | Daily Max Temp (°F) | Daily Min Temp (°F) |
|---|---|---|---|---|---|---|---|---|---|---|---|---|
| Windsor-NW (Ranch 8) | 5/7/26 | 1230 | 63.6 9.3 | 77 14 | 56.4 3.3 | 2.9 0.3 | SSE | 150 | 7.2 0.7 | 0.00 | 0.00 | 64.6 8.7 | 52.0 2.3 |
| Windsor-East (Ranch 16) | 5/7/26 | 1230 | 62.4 8.5 | 74 15 | 53.9 1.8 | 4.4 0.3 | SSW | 202 | 9.3 0.1 | 0.00 | 0.00 | 62.9 8.5 | 51.6 3.0 |
| Mark West-North (Ranch 14) | 5/7/26 | 1230 | 61.8 9.8 | 74 17 | 53.5 2.0 | 3.7 1.1 | S | 176 | 7.6 0.0 | 0.00 | 0.00 | 63.1 9.2 | 51.8 2.5 |
| Windsor-SE (Silk Rd) | 5/7/26 | 1230 | 62.7 7.9 | 74 14 | 54.4 1.9 | 3.7 1.0 | SE | 143 | 8.4 1.7 | 0.00 | 0.00 | 63.2 8.0 | 52.3 2.5 |
| Fulton-NW (Ranch 5) | 5/7/26 | 1230 | 61.6 10.2 | 76 16 | 53.9 3.2 | 4.0 1.2 | SSE | 160 | 7.9 0.3 | 0.00 | 0.00 | 62.6 9.5 | 51.9 2.4 |
| Bisordi (Fulton) | 5/7/26 | 1230 | 61.2 9.5 | 81 15 | 55.4 3.7 | 4.4 0.8 | SW | 223 | 8.8 1.3 | 0.00 | 0.00 | 61.2 9.6 | 52.2 2.3 |
| Windsor-South (Laughlin Rd) | 5/4/26 | 1515 | 70.3 | 46 | 48.5 | - | - | - | 0.00 | - | 71.4 | 51.0 |
| Fulton-SE (Barnes Rd) | 5/7/26 | 1230 | 61.4 7.9 | 74 11 | 53.2 3.1 | 3.4 0.1 | S | 190 | 8.0 1.0 | 0.00 | 0.00 | 62.3 9.0 | 52.1 2.8 |
| Fulton-SW (Ranch 21) | 5/7/26 | 1230 | 60.7 10.1 | 76 17 | 53.3 2.6 | 3.6 0.2 | SSE | 166 | 9.8 1.3 | 0.00 | 0.00 | 61.3 10.2 | 51.2 2.8 |
| NW Santa Rosa (Piner Road) | 5/7/26 | 1230 | 61.0 9.2 | 89 19 | 57.7 2.4 | 2.7 0.3 | SSE | 149 | 9.2 1.6 | 0.00 | 0.00 | 61.5 9.2 | 51.5 2.8 |
| River Rd South (Denner Ranch) | 5/7/26 | 1230 | 62.2 9.2 | 75 16 | 54.2 2.1 | 4.2 1.7 | SE | 143 | 8.8 5.0 | - | - | 63.4 8.6 | 51.1 2.8 |
| West Santa Rosa (LOV Vineyard) | 5/7/26 | 1230 | 62.0 7.1 | 76 12 | 54.4 2.2 | 2.7 0.8 | SSW | 196 | 6.4 1.7 | 0.00 | 0.00 | 62.4 8.3 | 51.5 2.9 |
| Guerneville Rd (Prokopakis) | 5/7/26 | 1230 | 64.5 9.0 | 71 12 | 55.0 3.6 | - | - | - | 0.00 | 0.00 | 65.3 9.1 | 51.8 2.9 |
| SunnyView Vineyard (SCWC) | 5/7/26 | 1230 | 62.2 8.1 | 74 12 | 54.0 2.7 | 2.0 0.9 | SE | 126 | 5.0 2.2 | 0.00 | 0.00 | 63.7 8.2 | 51.1 2.9 |
| Guerneville Rd West (Balletto) | 5/7/26 | 1230 | 61.0 8.4 | 82 12 | 55.6 3.8 | 2.9 1.3 | S | 172 | 9.4 0.7 | 0.00 | 0.00 | 61.6 8.6 | 51.7 3.0 |
| Sanchietti Ranch | 5/7/26 | 1230 | 62.3 8.8 | 83 8 | 57.1 5.8 | 3.4 2.1 | S | 187 | 7.6 3.2 | 0.00 | 0.00 | 62.3 9.0 | 52.2 3.0 |
| Occidental Rd (Sebastopol) | 5/7/26 | 1230 | 61.6 9.2 | 100 0 | 61.6 9.1 | 2.2 2.7 | SE | 138 | 5.9 4.6 | 0.00 | 0.00 | 62.4 8.8 | 51.2 2.6 |
| Harper's Rest (Windsor-West) | 5/7/26 | 1230 | 64.1 7.2 | 71 16 | 54.4 0.2 | 3.5 1.1 | ESE | 113 | 9.4 1.0 | 0.00 | 0.00 | 64.6 7.7 | 50.7 2.7 |
| Lower Westside Rd (Ranch 12) | 5/7/26 | 1230 | 65.6 8.0 | 69 17 | 55.2 0.2 | 4.0 1.4 | SE | 140 | 9.1 2.4 | 0.00 | 0.00 | 66.3 7.5 | 51.6 3.0 |
| Guerneville (Laughlin Rd) | 5/7/26 | 1230 | 68.0 5.1 | 59 7 | 53.2 1.2 | 3.9 2.4 | SSE | 156 | 7.6 3.0 | 0.00 | 0.00 | 68.0 5.6 | 51.5 2.4 |
| Korbel (Winery) | 5/7/26 | 1230 | 70.1 1.4 | 62 4 | 56.5 0.8 | 2.0 1.5 | W | 270 | 5.3 2.3 | 0.00 | 0.00 | 70.1 3.3 | 52.0 2.6 |
| Forestville (Shone Farms) | 5/7/26 | 1230 | 63.5 8.5 | 74 18 | 55.1 0.4 | 2.7 0.2 | SE | 141 | 7.0 0.2 | 0.00 | 0.00 | 64.9 8.6 | 49.9 2.4 |
| Forestville-NE (Ranch 30) | 5/7/26 | 1230 | 64.9 8.9 | 77 19 | 57.4 0.5 | 4.2 1.5 | SE | 128 | 8.3 1.4 | 0.00 | 0.00 | 66.0 7.8 | 50.9 3.0 |
| Foggy Bend (Ranch 41) | 5/7/26 | 1230 | 65.0 6.0 | 76 13 | 57.3 0.7 | 3.0 0.1 | SSE | 158 | 7.9 0.5 | 0.00 | 0.00 | 65.9 6.3 | 52.2 2.8 |
| Last Stop | 5/7/26 | 1230 | 64.0 7.5 | 78 15 | 56.9 1.1 | 3.5 0.5 | SSE | 150 | 7.5 0.7 | 0.00 | 0.00 | 64.3 7.7 | 51.4 2.9 |
| Green Valley Vineyard | 5/7/26 | 1230 | 62.5 7.8 | 78 18 | 55.6 0.2 | 3.8 1.0 | NE | 55 | 10.3 2.2 | 0.00 | 0.00 | 63.8 7.6 | 50.1 3.3 |
| Park Royal | 5/7/26 | 1230 | 61.1 9.4 | 76 14 | 53.5 3.5 | - | - | - | 0.00 | 0.00 | 61.9 9.0 | 51.1 3.0 |
| Merino | 5/7/26 | 1230 | 61.3 9.1 | 84 14 | 56.6 3.6 | 2.7 2.4 | SSW | 194 | 6.9 4.5 | 0.00 | 0.00 | 61.8 9.0 | 51.5 2.8 |
| Green Valley (Sanchietti) | 5/7/26 | 1230 | 64.5 8.6 | - | - | - | - | - | - | - | 65.2 9.3 | 50.4 4.3 |
| Keefer Ranch (Green Valley) | 5/7/26 | 1230 | 64.1 6.7 | 77 10 | 56.6 2.6 | - | - | - | 0.00 | 0.00 | 65.0 5.8 | 51.3 3.1 |
| Graton-West (Dutton Ranch) | 5/7/26 | 1230 | 64.8 7.2 | 100 24 | 64.8 0.6 | 3.8 0.6 | SE | 130 | 7.8 0.4 | 0.00 | 0.00 | 65.9 6.9 | 51.5 3.0 |
| Graton-South (Mill Station Rd) | 5/7/26 | 1230 | 60.2 6.8 | 82 13 | 54.6 2.0 | 1.3 2.2 | SSW | 213 | 3.9 3.4 | 0.00 | 0.00 | 61.0 8.0 | 50.7 3.0 |
| Occidental (Horseshoe Bend) | 5/7/26 | 1230 | 60.5 5.5 | 81 13 | 54.6 0.6 | - | - | - | 0.00 | 0.01 | 61.2 5.4 | 49.2 2.2 |
| Sexton Valley (Jacqueline's Blk) | 5/7/26 | 1230 | 61.2 6.4 | 83 10 | 55.9 2.5 | 2.7 1.5 | S | 191 | 6.8 5.5 | 0.00 | 0.00 | 62.2 7.2 | 51.1 3.1 |
| Sebastopol Hills (Burnside Rd) | 5/7/26 | 1230 | 56.4 7.5 | 98 19 | 55.9 1.5 | 4.8 1.4 | SSW | 197 | 8.6 2.0 | 0.00 | 0.00 | 57.4 7.3 | 49.6 2.7 |
| Pleasant Hill | 5/7/26 | 1230 | 60.9 6.3 | 78 11 | 54.1 1.8 | 3.0 2.8 | SW | 217 | 7.5 3.0 | 0.00 | 0.00 | 61.1 7.7 | 50.3 2.9 |
| Seaview/Fort Ross (Hirsch) | 5/7/26 | 1230 | 58.6 1.9 | 84 7 | 53.9 0.5 | 3.5 0.8 | W | 262 | 6.9 1.8 | 0.00 | 0.00 | 60.3 1.1 | 47.2 1.8 |
| Max | 70.1 | 100 | 64.8 | 4.8 | - | 10.3 | 0.00 | 0.01 | 70.1 | 52.3 | ||
| Avg | 62.6 | 78 | 55.6 | 3.3 | - | 7.7 | 0.00 | - | - | - | ||
| Min | 56.4 | 59 | 53.2 | 1.3 | - | 3.9 | 0.00 | 0.00 | 57.4 | 47.2 |
| Station | Date | Time | Temp (°F) | RH (%) | Dew Pt (°F) | Wind Spd (mph) | Wind Dir (°) | Wind Gust (mph) | Latest Rain (In) | Daily Rain (In) | Daily Min Temp (°F) | Daily Max Temp (°F) |
|---|---|---|---|---|---|---|---|---|---|---|---|---|
| Upper Rincon Valley | 5/7/26 | 1230 | 61.8 3.4 | 74 7 | 53.5 0.5 | 3.6 0.7 | SSW | 192 | 7.4 1.8 | 0.00 | 0.00 | 48.1 2.6 | 62.2 3.6 |
| Lower Bennett Valley | 5/7/26 | 1230 | 66.6 1.9 | 72 6 | 57.4 0.7 | 2.4 0.5 | NE | 47 | 5.0 1.9 | 0.00 | 0.00 | 49.9 3.5 | 67.2 1.8 |
| Kenwood (Wildwood) | 5/7/26 | 1230 | 69.1 0.3 | 67 5 | 57.6 2.3 | 2.2 0.4 | NNE | 12 | 6.3 2.2 | 0.00 | 0.00 | 47.8 5.7 | 69.8 0.0 |
| Crane Creek (Ranch 62) | 5/7/26 | 1230 | 63.9 5.7 | 70 5 | 53.8 3.3 | 4.2 1.2 | SSW | 204 | 8.7 1.3 | 0.00 | 0.00 | 50.8 3.1 | 66.1 4.7 |
| Rohnert Park-West (Stony Point) | 5/7/26 | 1230 | 60.9 6.1 | 84 10 | 56.2 2.3 | 3.0 3.5 | SW | 226 | 7.7 4.2 | 0.00 | 0.00 | 51.2 2.9 | 61.0 7.8 |
| Rice-Spivak Vineyard | 5/7/26 | 1230 | 61.9 5.4 | - | - | - | - | - | - | - | 50.8 2.6 | 62.9 7.8 |
| Cartograph Wines Base | 5/7/26 | 1230 | 57.9 5.2 | 89 6 | 54.6 3.3 | 7.0 2.4 | SSW | 193 | 11.4 5.9 | 0.00 | 0.00 | 50.0 3.0 | 59.3 6.6 |
| Cartograph Wines Remote | 5/7/26 | 1230 | 60.6 5.9 | - | - | - | - | - | - | - | 50.9 2.7 | 61.7 7.2 |
| Penngrove (Asellus) | 5/7/26 | 1230 | 62.4 5.0 | 73 5 | 53.8 2.8 | 2.7 1.4 | NW | 306 | 7.9 0.3 | 0.00 | 0.00 | 51.0 3.1 | 63.5 7.1 |
| Sonoma Valley (Bedrock) | 5/7/26 | 1230 | 66.4 2.2 | 65 6 | 54.1 0.6 | - | - | - | 0.00 | 0.00 | 48.0 5.8 | 67.2 2.3 |
| Sonoma-West (Arnold) | 5/7/26 | 1230 | 67.7 3.2 | 65 5 | 55.7 1.0 | 2.8 0.3 | SE | 142 | 6.7 0.6 | 0.00 | 0.00 | 48.7 6.3 | 68.4 2.5 |
| Sonoma Valley HS | 5/7/26 | 1230 | 64.1 5.1 | 78 12 | 57.3 0.2 | 3.3 1.3 | SW | 228 | 8.3 4.3 | 0.00 | 0.00 | 51.4 3.6 | 64.8 4.8 |
| Sonoma East (Bundschu01) | 5/7/26 | 1230 | 64.9 5.6 | 70 10 | 54.9 0.9 | 3.5 2.5 | SW | 228 | 8.8 3.7 | 0.00 | 0.00 | 50.9 4.0 | 65.5 6.0 |
| Sonoma-SE (Napoli) | 5/7/26 | 1230 | 65.8 4.3 | 68 11 | 54.8 0.7 | 3.5 1.0 | WSW | 238 | 7.4 2.3 | 0.00 | 0.00 | 51.5 3.4 | 66.5 4.4 |
| Schellville (Sasaki) | 2/7/26 | 1900 | 53.4 2.2 | 88 10 | 49.9 1.0 | 3.3 1.8 | SW | 225 | 5.8 4.0 | 0.00 | 0.00 | 47.0 0.8 | 62.8 8.4 |
| Petaluma (Ranch 10) | 5/7/26 | 1230 | 65.1 7.7 | 67 11 | 54.0 2.4 | 5.1 0.7 | NW | 306 | 9.4 1.6 | 0.00 | 0.00 | 52.2 2.4 | 65.4 8.2 |
| Carneros (Ranch 71) | 5/7/26 | 1230 | 64.1 5.3 | 71 14 | 54.6 0.9 | 3.2 1.2 | SSW | 208 | 10.4 4.7 | 0.00 | 0.00 | 50.8 2.9 | 64.4 6.1 |
| Ricci Vineyards (Carneros) | 5/7/26 | 1230 | 65.9 5.5 | 68 14 | 55.2 1.4 | 3.3 1.8 | SW | 233 | 6.7 2.5 | 0.00 | 0.00 | 51.4 3.2 | 66.8 5.6 |
| Carneros Upper (Ranch 81) | 5/7/26 | 1230 | 64.0 5.5 | 72 10 | 54.8 1.0 | 4.4 0.8 | SW | 223 | 8.8 0.2 | - | - | 50.9 2.9 | 64.0 5.7 |
| Carneros Lower (Ranch 81) | 5/7/26 | 1230 | 67.0 1.5 | 68 1 | 56.1 1.2 | 0.8 3.8 | W | 259 | 5.1 4.3 | 0.00 | 0.00 | 51.1 3.5 | 67.0 3.9 |
| Max | 69.1 | 89 | 57.6 | 7.0 | - | 11.4 | 0.00 | 0.00 | 52.2 | 69.8 | ||
| Avg | 64.2 | 72 | 55.2 | 3.4 | - | 7.9 | 0.00 | - | - | - | ||
| Min | 57.9 | 65 | 53.5 | 0.8 | - | 5.0 | 0.00 | 0.00 | 47.8 | 59.3 |